createdAt,value
2022-09-25T00:05:45.913Z,10.90
2022-09-25T00:11:48.258Z,10.90
2022-09-25T00:17:50.636Z,11.00
2022-09-25T00:23:53.437Z,11.00
2022-09-25T00:29:55.784Z,10.90
2022-09-25T00:36:04.183Z,10.80
2022-09-25T00:42:06.667Z,10.80
2022-09-25T00:48:15.095Z,10.80
2022-09-25T00:54:32.491Z,10.80
2022-09-25T01:00:35.054Z,10.80
2022-09-25T01:06:37.400Z,10.80
2022-09-25T01:12:43.737Z,10.80
2022-09-25T01:18:52.456Z,10.80
2022-09-25T01:25:29.346Z,10.70
2022-09-25T01:31:52.016Z,10.70
2022-09-25T01:38:00.432Z,10.70
2022-09-25T01:44:32.432Z,10.70
2022-09-25T01:50:42.046Z,10.70
2022-09-25T01:56:57.862Z,10.50
2022-09-25T02:03:09.752Z,10.50
2022-09-25T02:09:17.746Z,10.40
2022-09-25T02:15:43.868Z,10.30
2022-09-25T02:21:49.415Z,10.20
2022-09-25T02:27:51.831Z,10.10
2022-09-25T02:33:54.147Z,10.00
2022-09-25T02:40:00.827Z,9.80
2022-09-25T02:46:56.509Z,9.70
2022-09-25T02:53:27.023Z,9.60
2022-09-25T02:59:38.369Z,9.60
2022-09-25T03:05:41.718Z,9.50
2022-09-25T03:11:44.719Z,9.40
2022-09-25T03:17:48.476Z,9.40
2022-09-25T03:23:50.692Z,9.40
2022-09-25T03:29:53.127Z,9.30
2022-09-25T03:36:12.501Z,9.30
2022-09-25T03:42:14.817Z,9.30
2022-09-25T03:48:18.129Z,9.30
2022-09-25T03:54:20.612Z,9.20
2022-09-25T04:00:24.358Z,9.20
2022-09-25T04:06:27.149Z,9.20
2022-09-25T04:12:29.783Z,9.20
2022-09-25T04:18:32.940Z,9.20
2022-09-25T04:24:50.211Z,9.30
2022-09-25T04:30:52.576Z,9.60
2022-09-25T04:36:54.787Z,9.70
2022-09-25T04:43:01.646Z,9.80
2022-09-25T04:49:03.874Z,9.90
2022-09-25T04:55:06.933Z,10.30
2022-09-25T05:01:10.394Z,13.60
2022-09-25T05:07:12.664Z,18.20
2022-09-25T05:13:14.911Z,21.30
2022-09-25T05:19:17.396Z,22.70
2022-09-25T05:25:22.433Z,24.20
2022-09-25T05:31:24.927Z,25.20
2022-09-25T05:37:27.156Z,25.90
2022-09-25T05:43:29.624Z,27.40
2022-09-25T05:49:31.692Z,27.40
2022-09-25T05:55:33.702Z,26.90
2022-09-25T06:01:35.818Z,28.10
2022-09-25T06:07:37.846Z,29.10
2022-09-25T06:13:39.940Z,29.40
2022-09-25T06:19:42.027Z,31.00
2022-09-25T06:25:44.643Z,31.90
2022-09-25T06:31:46.865Z,30.90
2022-09-25T06:37:49.004Z,31.70
2022-09-25T06:43:52.018Z,33.20
2022-09-25T06:49:54.307Z,33.40
2022-09-25T06:55:59.859Z,33.20
2022-09-25T07:02:22.118Z,34.10
2022-09-25T07:08:24.720Z,35.40
2022-09-25T07:14:26.894Z,35.40
2022-09-25T07:20:28.937Z,33.80
2022-09-25T07:26:34.070Z,35.00
2022-09-25T07:32:36.334Z,35.30
2022-09-25T07:38:39.613Z,34.90
2022-09-25T07:44:46.081Z,34.10
2022-09-25T07:50:50.427Z,35.00
2022-09-25T07:56:52.750Z,33.80
2022-09-25T08:02:59.537Z,34.50
2022-09-25T08:09:04.575Z,34.50
2022-09-25T08:15:09.550Z,36.10
2022-09-25T08:21:14.498Z,36.80
2022-09-25T08:27:16.640Z,35.40
2022-09-25T08:33:18.735Z,35.90
2022-09-25T08:39:20.946Z,35.20
2022-09-25T08:45:53.129Z,35.50
2022-09-25T08:52:01.078Z,35.50
2022-09-25T08:58:03.499Z,34.80
2022-09-25T09:04:11.390Z,34.60
2022-09-25T09:10:45.925Z,35.20
2022-09-25T09:17:03.788Z,33.90
2022-09-25T09:23:11.058Z,29.70
2022-09-25T09:29:27.302Z,28.70
2022-09-25T09:35:57.536Z,27.10
2022-09-25T09:42:02.681Z,28.50
2022-09-25T09:48:23.053Z,25.40
2022-09-25T09:54:36.950Z,24.80
2022-09-25T10:00:40.415Z,24.70
2022-09-25T10:07:03.817Z,25.50
2022-09-25T10:13:42.885Z,25.10
2022-09-25T10:19:49.587Z,27.90
2022-09-25T10:25:55.846Z,30.10
2022-09-25T10:32:02.810Z,27.30
2022-09-25T10:38:06.797Z,26.80
2022-09-25T10:44:28.792Z,30.60
2022-09-25T10:50:31.138Z,32.30
2022-09-25T10:56:36.319Z,33.50
2022-09-25T11:02:43.051Z,34.10
2022-09-25T11:08:46.439Z,34.80
2022-09-25T11:15:01.882Z,34.60
2022-09-25T11:21:05.689Z,35.40
2022-09-25T11:27:20.595Z,35.60
2022-09-25T11:33:49.432Z,34.90
2022-09-25T11:40:31.853Z,32.50
2022-09-25T11:47:02.551Z,30.60
2022-09-25T11:53:33.916Z,28.70
2022-09-25T12:00:20.343Z,28.70
2022-09-25T12:06:39.132Z,31.40
2022-09-25T12:13:06.776Z,29.60
2022-09-25T12:19:23.819Z,27.30
2022-09-25T12:25:42.076Z,26.50
2022-09-25T12:32:04.879Z,25.90
2022-09-25T12:38:32.215Z,25.10
2022-09-25T12:44:47.796Z,24.80
2022-09-25T12:51:05.545Z,24.40
2022-09-25T12:57:17.062Z,24.20
2022-09-25T13:03:33.649Z,23.80
2022-09-25T13:09:45.259Z,23.80
2022-09-25T13:15:58.618Z,23.80
2022-09-25T13:22:32.574Z,24.70
2022-09-25T13:28:38.688Z,24.20
2022-09-25T13:34:42.611Z,25.10
2022-09-25T13:40:50.629Z,24.60
2022-09-25T13:47:22.440Z,24.80
2022-09-25T13:53:27.568Z,24.30
2022-09-25T13:59:37.816Z,23.90
2022-09-25T14:05:43.204Z,23.70
2022-09-25T14:11:56.644Z,23.50
2022-09-25T14:18:01.154Z,23.30
2022-09-25T14:24:32.798Z,23.10
2022-09-25T14:30:35.196Z,23.10
2022-09-25T14:37:29.934Z,22.90
2022-09-25T14:44:10.151Z,22.80
2022-09-25T14:50:25.513Z,22.70
2022-09-25T14:56:34.333Z,22.50
2022-09-25T15:02:40.014Z,22.30
2022-09-25T15:08:42.588Z,22.30
2022-09-25T15:15:16.730Z,22.10
2022-09-25T15:21:33.867Z,21.80
2022-09-25T15:27:42.935Z,21.60
2022-09-25T15:33:46.077Z,21.30
2022-09-25T15:39:48.438Z,21.10
2022-09-25T15:46:03.746Z,20.80
2022-09-25T15:52:22.717Z,20.50
2022-09-25T15:58:24.905Z,20.20
2022-09-25T16:04:45.470Z,19.90
2022-09-25T16:10:50.091Z,19.50
2022-09-25T16:16:52.680Z,19.20
2022-09-25T16:23:01.113Z,18.90
2022-09-25T16:29:12.321Z,18.50
2022-09-25T16:35:44.787Z,18.30
2022-09-25T16:41:52.730Z,18.10
2022-09-25T16:47:55.234Z,17.90
2022-09-25T16:54:01.263Z,17.60
2022-09-25T17:00:06.183Z,17.30
2022-09-25T17:06:08.787Z,17.20
2022-09-25T17:12:15.111Z,17.00
2022-09-25T17:18:21.541Z,16.90
2022-09-25T17:24:26.944Z,16.80
2022-09-25T17:30:29.109Z,16.70
2022-09-25T17:36:31.119Z,16.60
2022-09-25T17:42:33.156Z,16.50
2022-09-25T17:48:35.464Z,16.40
2022-09-25T17:54:37.530Z,16.20
2022-09-25T18:00:39.749Z,16.20
2022-09-25T18:06:43.933Z,16.10
2022-09-25T18:12:45.944Z,16.10
2022-09-25T18:19:07.130Z,16.10
2022-09-25T18:25:10.868Z,16.10
2022-09-25T18:31:14.460Z,16.10
2022-09-25T18:37:16.713Z,16.00
2022-09-25T18:43:18.847Z,15.90
2022-09-25T18:49:21.275Z,15.80
2022-09-25T18:55:23.343Z,15.80
2022-09-25T19:01:25.450Z,15.70
2022-09-25T19:07:29.407Z,15.60
2022-09-25T19:13:31.504Z,15.60
2022-09-25T19:19:35.348Z,15.50
2022-09-25T19:25:37.424Z,15.50
2022-09-25T19:31:39.802Z,15.60
2022-09-25T19:37:42.487Z,15.60
2022-09-25T19:43:44.636Z,15.60
2022-09-25T19:49:46.713Z,15.70
2022-09-25T19:55:53.242Z,15.80
2022-09-25T20:01:55.340Z,15.90
2022-09-25T20:07:57.408Z,16.00
2022-09-25T20:14:01.322Z,16.10
2022-09-25T20:20:03.911Z,16.10
2022-09-25T20:26:13.512Z,16.00
2022-09-25T20:32:15.464Z,15.90
2022-09-25T20:38:17.466Z,15.70
2022-09-25T20:44:19.538Z,15.60
2022-09-25T20:50:21.898Z,15.40
2022-09-25T20:56:24.862Z,15.30
2022-09-25T21:02:27.080Z,15.20
2022-09-25T21:08:33.402Z,15.10
2022-09-25T21:14:35.430Z,15.20
2022-09-25T21:20:38.419Z,15.30
2022-09-25T21:26:40.840Z,15.40
2022-09-25T21:32:42.860Z,15.50
2022-09-25T21:38:44.891Z,15.60
2022-09-25T21:44:47.772Z,15.60
2022-09-25T21:50:54.215Z,15.60
2022-09-25T21:56:56.276Z,15.50
2022-09-25T22:02:58.380Z,15.50
2022-09-25T22:09:16.079Z,15.50
2022-09-25T22:15:18.248Z,15.50
2022-09-25T22:21:22.481Z,15.50
2022-09-25T22:27:24.761Z,15.50
2022-09-25T22:33:26.871Z,15.50
2022-09-25T22:39:29.685Z,15.60
2022-09-25T22:45:31.660Z,15.70
2022-09-25T22:51:33.838Z,15.70
2022-09-25T22:57:39.280Z,15.70
2022-09-25T23:03:41.341Z,15.60
2022-09-25T23:09:43.483Z,15.70
2022-09-25T23:15:45.614Z,15.70
2022-09-25T23:21:49.056Z,15.70
2022-09-25T23:27:51.539Z,15.70
2022-09-25T23:33:53.697Z,15.60
2022-09-25T23:39:56.171Z,15.60
2022-09-25T23:45:58.337Z,15.50
2022-09-25T23:52:00.529Z,15.40
2022-09-25T23:58:02.822Z,15.40
